createdAt,value
2023-04-29T00:01:37.649Z,7.42
2023-04-29T00:04:04.689Z,7.49
2023-04-29T00:06:31.839Z,7.61
2023-04-29T00:08:58.650Z,7.93
2023-04-29T00:11:25.515Z,7.87
2023-04-29T00:13:52.701Z,8.02
2023-04-29T00:16:20.109Z,8.25
2023-04-29T00:18:47.137Z,8.38
2023-04-29T00:21:13.976Z,8.30
2023-04-29T00:23:40.840Z,7.75
2023-04-29T00:26:07.771Z,7.70
2023-04-29T00:28:34.716Z,7.72
2023-04-29T00:31:01.683Z,7.54
2023-04-29T00:33:29.026Z,7.89
2023-04-29T00:35:55.951Z,8.02
2023-04-29T00:38:23.162Z,7.81
2023-04-29T00:40:50.039Z,7.97
2023-04-29T00:43:17.451Z,8.05
2023-04-29T00:45:46.489Z,7.86
2023-04-29T00:48:14.705Z,7.99
2023-04-29T00:50:41.711Z,8.14
2023-04-29T00:53:14.440Z,6.56
2023-04-29T00:55:41.743Z,5.41
2023-04-29T00:58:09.912Z,5.21
2023-04-29T01:00:36.808Z,4.96
2023-04-29T01:03:04.704Z,5.21
2023-04-29T01:05:33.258Z,5.10
2023-04-29T01:08:14.982Z,5.09
2023-04-29T01:10:54.863Z,4.89
2023-04-29T01:13:51.487Z,4.92
2023-04-29T01:16:38.676Z,4.66
2023-04-29T01:19:17.397Z,4.70
2023-04-29T01:21:50.625Z,4.67
2023-04-29T01:24:17.604Z,4.54
2023-04-29T01:26:56.116Z,4.71
2023-04-29T01:29:54.524Z,4.43
2023-04-29T01:32:29.925Z,2.39
2023-04-29T01:35:06.525Z,2.95
2023-04-29T01:37:39.233Z,2.61
2023-04-29T01:40:16.650Z,3.03
2023-04-29T01:43:09.022Z,3.36
2023-04-29T01:45:35.920Z,3.46
2023-04-29T01:48:04.364Z,3.32
2023-04-29T01:50:32.134Z,3.26
2023-04-29T01:53:07.836Z,3.38
2023-04-29T01:55:34.968Z,3.36
2023-04-29T01:58:12.672Z,3.37
2023-04-29T02:01:02.948Z,3.66
2023-04-29T02:03:34.024Z,3.57
2023-04-29T02:06:01.918Z,3.60
2023-04-29T02:08:29.119Z,3.59
2023-04-29T02:10:56.984Z,3.52
2023-04-29T02:13:41.145Z,3.38
2023-04-29T02:16:09.509Z,3.46
2023-04-29T02:18:37.586Z,3.73
2023-04-29T02:21:05.032Z,3.74
2023-04-29T02:23:37.011Z,3.61
2023-04-29T02:26:07.017Z,3.93
2023-04-29T02:28:34.422Z,3.85
2023-04-29T02:31:01.824Z,3.66
2023-04-29T02:33:28.817Z,3.16
2023-04-29T02:35:55.917Z,3.04
2023-04-29T02:38:22.777Z,3.02
2023-04-29T02:40:49.846Z,2.88
2023-04-29T02:43:16.646Z,2.96
2023-04-29T02:45:45.025Z,2.83
2023-04-29T02:48:11.987Z,2.99
2023-04-29T02:50:39.329Z,3.00
2023-04-29T02:53:06.376Z,2.98
2023-04-29T02:55:33.736Z,2.99
2023-04-29T02:58:05.590Z,3.09
2023-04-29T03:00:32.553Z,3.44
2023-04-29T03:02:59.585Z,3.63
2023-04-29T03:05:26.767Z,3.85
2023-04-29T03:07:54.009Z,4.00
2023-04-29T03:10:21.335Z,4.35
2023-04-29T03:12:48.528Z,4.65
2023-04-29T03:15:15.835Z,4.93
2023-04-29T03:17:45.158Z,5.24
2023-04-29T03:20:13.349Z,5.58
2023-04-29T03:22:40.562Z,5.88
2023-04-29T03:25:09.822Z,6.28
2023-04-29T03:27:37.787Z,6.42
2023-04-29T03:30:06.383Z,6.64
2023-04-29T03:32:33.767Z,7.00
2023-04-29T03:35:01.426Z,7.37
2023-04-29T03:37:43.666Z,7.61
2023-04-29T03:40:18.964Z,5.27
2023-04-29T03:42:45.804Z,7.35
2023-04-29T03:45:13.774Z,7.99
2023-04-29T03:47:40.862Z,8.62
2023-04-29T03:50:08.708Z,7.26
2023-04-29T03:52:38.606Z,7.97
2023-04-29T03:55:11.174Z,8.40
2023-04-29T03:57:39.294Z,8.41
2023-04-29T04:00:08.484Z,8.87
2023-04-29T04:02:44.027Z,9.11
2023-04-29T04:05:11.408Z,9.59
2023-04-29T04:07:39.206Z,9.70
2023-04-29T04:10:24.943Z,9.94
2023-04-29T04:12:52.652Z,10.37
2023-04-29T04:15:21.947Z,10.52
2023-04-29T04:17:49.008Z,10.86
2023-04-29T04:20:16.093Z,10.67
2023-04-29T04:22:43.432Z,10.90
2023-04-29T04:25:17.259Z,11.43
2023-04-29T04:27:44.033Z,11.67
2023-04-29T04:30:13.966Z,11.81
2023-04-29T04:32:40.970Z,11.87
2023-04-29T04:35:08.775Z,12.21
2023-04-29T04:37:35.732Z,12.59
2023-04-29T04:40:03.276Z,12.95
2023-04-29T04:42:33.113Z,12.97
2023-04-29T04:45:00.444Z,13.08
2023-04-29T04:47:47.638Z,13.30
2023-04-29T04:50:21.780Z,13.59
2023-04-29T04:52:49.235Z,13.79
2023-04-29T04:55:32.884Z,13.78
2023-04-29T04:58:02.274Z,13.79
2023-04-29T05:00:30.440Z,13.83
2023-04-29T05:02:57.893Z,14.29
2023-04-29T05:05:25.063Z,14.27
2023-04-29T05:07:51.824Z,13.73
2023-04-29T05:10:27.106Z,13.89
2023-04-29T05:12:55.814Z,14.02
2023-04-29T05:15:22.706Z,14.10
2023-04-29T05:17:51.084Z,14.25
2023-04-29T05:20:18.056Z,14.26
2023-04-29T05:22:45.674Z,14.57
2023-04-29T05:25:13.099Z,14.78
2023-04-29T05:27:40.723Z,15.03
2023-04-29T05:30:11.642Z,15.26
2023-04-29T05:32:38.719Z,15.64
2023-04-29T05:35:07.749Z,15.93
2023-04-29T05:37:35.291Z,16.00
2023-04-29T05:40:15.109Z,16.13
2023-04-29T05:42:42.285Z,16.20
2023-04-29T05:45:09.854Z,16.47
2023-04-29T05:47:36.764Z,16.82
2023-04-29T05:50:03.908Z,16.92
2023-04-29T05:52:30.958Z,16.95
2023-04-29T05:54:58.892Z,16.91
2023-04-29T05:57:25.794Z,17.02
2023-04-29T05:59:57.193Z,17.01
2023-04-29T06:02:24.244Z,16.89
2023-04-29T06:04:51.652Z,17.18
2023-04-29T06:07:28.181Z,16.98
2023-04-29T06:09:59.846Z,17.04
2023-04-29T06:12:27.519Z,17.33
2023-04-29T06:14:54.681Z,17.27
2023-04-29T06:17:21.828Z,17.42
2023-04-29T06:19:48.776Z,17.22
2023-04-29T06:22:15.650Z,17.04
2023-04-29T06:24:49.424Z,17.01
2023-04-29T06:27:22.655Z,17.53
2023-04-29T06:29:49.474Z,17.54
2023-04-29T06:32:16.605Z,17.42
2023-04-29T06:34:45.291Z,17.40
2023-04-29T06:37:28.271Z,17.59
2023-04-29T06:40:07.064Z,17.71
2023-04-29T06:43:03.948Z,17.27
2023-04-29T06:45:51.260Z,17.35
2023-04-29T06:48:22.136Z,17.50
2023-04-29T06:50:53.865Z,17.85
2023-04-29T06:53:21.249Z,18.09
2023-04-29T06:55:48.189Z,17.88
2023-04-29T06:58:15.827Z,17.76
2023-04-29T07:00:46.954Z,17.75
2023-04-29T07:03:14.745Z,17.55
2023-04-29T07:05:44.782Z,17.34
2023-04-29T07:08:12.682Z,17.50
2023-04-29T07:10:40.875Z,17.28
2023-04-29T07:13:07.692Z,16.86
2023-04-29T07:15:35.816Z,17.39
2023-04-29T07:18:04.856Z,17.78
2023-04-29T07:20:31.839Z,17.68
2023-04-29T07:22:58.881Z,17.77
2023-04-29T07:25:27.231Z,17.85
2023-04-29T07:27:53.932Z,18.12
2023-04-29T07:30:20.816Z,17.89
2023-04-29T07:32:47.682Z,17.68
2023-04-29T07:35:14.766Z,17.80
2023-04-29T07:37:43.971Z,18.52
2023-04-29T07:40:11.156Z,19.47
2023-04-29T07:42:38.369Z,19.73
2023-04-29T07:45:06.673Z,19.20
2023-04-29T07:47:34.353Z,18.57
2023-04-29T07:50:01.145Z,18.10
2023-04-29T07:52:29.015Z,18.33
2023-04-29T07:54:55.914Z,18.56
2023-04-29T07:57:22.680Z,17.86
2023-04-29T07:59:53.481Z,15.51
2023-04-29T08:02:21.031Z,17.54
2023-04-29T08:04:48.675Z,17.52
2023-04-29T08:07:16.952Z,15.23
2023-04-29T08:09:43.691Z,16.10
2023-04-29T08:12:10.933Z,16.65
2023-04-29T08:14:40.482Z,17.71
2023-04-29T08:17:08.142Z,18.02
2023-04-29T08:19:35.311Z,18.47
2023-04-29T08:22:03.642Z,19.22
2023-04-29T08:24:32.997Z,19.36
2023-04-29T08:26:59.864Z,18.77
2023-04-29T08:29:27.148Z,18.21
2023-04-29T08:31:54.030Z,18.38
2023-04-29T08:34:20.894Z,18.62
2023-04-29T08:36:47.684Z,19.19
2023-04-29T08:39:14.460Z,19.46
2023-04-29T08:41:43.613Z,19.12
2023-04-29T08:44:10.430Z,19.21
2023-04-29T08:46:38.250Z,18.39
2023-04-29T08:49:05.005Z,18.65
2023-04-29T08:51:34.108Z,19.14
2023-04-29T08:54:01.178Z,18.77
2023-04-29T08:56:28.361Z,15.53
2023-04-29T08:58:55.918Z,15.04
2023-04-29T09:01:22.811Z,14.89
2023-04-29T09:03:54.548Z,16.12
2023-04-29T09:06:21.605Z,15.44
2023-04-29T09:08:48.446Z,16.54
2023-04-29T09:11:15.278Z,17.98
2023-04-29T09:13:42.107Z,18.15
2023-04-29T09:16:12.257Z,18.26
2023-04-29T09:18:49.790Z,18.33
2023-04-29T09:21:16.578Z,17.68
2023-04-29T09:23:44.290Z,17.98
2023-04-29T09:26:11.078Z,17.19
2023-04-29T09:28:40.563Z,15.62
2023-04-29T09:31:08.091Z,15.63
2023-04-29T09:33:51.930Z,15.36
2023-04-29T09:36:48.814Z,15.30
2023-04-29T09:39:21.564Z,14.96
2023-04-29T09:41:54.396Z,15.45
2023-04-29T09:44:33.612Z,16.89
2023-04-29T09:47:03.551Z,16.91
2023-04-29T09:49:38.015Z,16.92
2023-04-29T09:52:16.129Z,17.09
2023-04-29T09:54:43.134Z,17.18
2023-04-29T09:57:11.483Z,17.31
2023-04-29T09:59:39.109Z,17.55
2023-04-29T10:02:17.114Z,17.77
2023-04-29T10:04:48.000Z,16.39
2023-04-29T10:07:16.273Z,16.48
2023-04-29T10:09:43.810Z,17.12
2023-04-29T10:12:10.791Z,15.38
2023-04-29T10:14:45.055Z,15.44
2023-04-29T10:17:17.007Z,15.45
2023-04-29T10:19:56.736Z,15.97
2023-04-29T10:22:30.395Z,17.82
2023-04-29T10:24:58.640Z,18.91
2023-04-29T10:27:25.899Z,18.52
2023-04-29T10:29:52.668Z,16.81
2023-04-29T10:32:19.441Z,16.03
2023-04-29T10:34:46.257Z,15.58
2023-04-29T10:37:12.978Z,15.59
2023-04-29T10:39:52.771Z,15.52
2023-04-29T10:42:34.710Z,15.67
2023-04-29T10:45:34.922Z,15.79
2023-04-29T10:48:02.199Z,15.96
2023-04-29T10:50:29.954Z,15.88
2023-04-29T10:52:57.260Z,15.96
2023-04-29T10:55:24.567Z,16.57
2023-04-29T10:57:57.750Z,16.35
2023-04-29T11:00:28.895Z,16.09
2023-04-29T11:02:56.773Z,16.31
2023-04-29T11:05:30.363Z,17.97
2023-04-29T11:08:12.962Z,18.22
2023-04-29T11:10:43.103Z,18.78
2023-04-29T11:13:29.493Z,19.28
2023-04-29T11:16:07.406Z,19.12
2023-04-29T11:18:36.696Z,19.32
2023-04-29T11:21:06.399Z,19.33
2023-04-29T11:23:34.183Z,18.92
2023-04-29T11:26:01.002Z,19.16
2023-04-29T11:28:28.091Z,19.27
2023-04-29T11:30:54.912Z,19.21
2023-04-29T11:33:21.885Z,19.27
2023-04-29T11:35:48.814Z,19.26
2023-04-29T11:38:15.737Z,19.25
2023-04-29T11:40:48.689Z,18.78
2023-04-29T11:43:19.458Z,18.38
2023-04-29T11:45:46.517Z,18.44
2023-04-29T11:48:23.644Z,18.51
2023-04-29T11:50:57.277Z,18.26
2023-04-29T11:53:25.353Z,18.14
2023-04-29T11:55:55.396Z,18.53
2023-04-29T11:58:22.816Z,18.93
2023-04-29T12:00:50.256Z,18.93
2023-04-29T12:03:19.010Z,18.78
2023-04-29T12:05:53.458Z,18.64
2023-04-29T12:08:21.189Z,18.76
2023-04-29T12:10:48.800Z,18.77
2023-04-29T12:13:18.968Z,18.74
2023-04-29T12:15:47.086Z,18.88
2023-04-29T12:18:14.092Z,19.12
2023-04-29T12:20:40.918Z,19.58
2023-04-29T12:23:15.043Z,19.66
2023-04-29T12:25:42.108Z,19.94
2023-04-29T12:28:12.650Z,19.86
2023-04-29T12:30:39.408Z,19.68
2023-04-29T12:33:09.367Z,20.01
2023-04-29T12:35:36.604Z,20.28
2023-04-29T12:38:03.389Z,20.04
2023-04-29T12:40:32.391Z,19.68
2023-04-29T12:43:06.618Z,20.08
2023-04-29T12:45:34.284Z,20.04
2023-04-29T12:48:01.345Z,19.95
2023-04-29T12:50:32.643Z,20.01
2023-04-29T12:52:59.782Z,20.16
2023-04-29T12:55:26.711Z,19.96
2023-04-29T12:57:53.434Z,19.96
2023-04-29T13:00:21.091Z,19.70
2023-04-29T13:02:48.331Z,19.82
2023-04-29T13:05:16.005Z,19.96
2023-04-29T13:07:43.218Z,20.09
2023-04-29T13:10:12.009Z,20.24
2023-04-29T13:12:39.058Z,19.98
2023-04-29T13:15:09.087Z,19.86
2023-04-29T13:17:36.530Z,19.75
2023-04-29T13:20:04.984Z,20.42
2023-04-29T13:22:32.290Z,20.63
2023-04-29T13:24:59.144Z,20.45
2023-04-29T13:27:26.207Z,20.58
2023-04-29T13:29:53.034Z,20.86
2023-04-29T13:32:24.363Z,19.87
2023-04-29T13:34:51.713Z,18.51
2023-04-29T13:37:21.804Z,18.50
2023-04-29T13:39:54.150Z,18.50
2023-04-29T13:42:26.948Z,18.56
2023-04-29T13:44:56.713Z,18.73
2023-04-29T13:47:26.154Z,18.97
2023-04-29T13:50:16.984Z,18.48
2023-04-29T14:00:31.718Z,18.71
2023-04-29T14:05:28.497Z,18.84
2023-04-29T14:07:55.421Z,18.66
2023-04-29T14:10:22.263Z,18.39
2023-04-29T14:12:49.133Z,18.17
2023-04-29T14:15:16.272Z,18.18
2023-04-29T14:17:43.131Z,18.28
2023-04-29T14:20:10.218Z,18.56
2023-04-29T14:22:37.910Z,19.01
2023-04-29T14:25:06.307Z,19.94
2023-04-29T14:27:35.117Z,18.60
2023-04-29T14:30:01.915Z,18.54
2023-04-29T14:32:29.605Z,18.76
2023-04-29T14:34:56.361Z,18.88
2023-04-29T14:37:23.059Z,18.89
2023-04-29T14:39:49.794Z,19.44
2023-04-29T14:42:18.170Z,19.29
2023-04-29T14:44:45.021Z,19.22
2023-04-29T14:47:11.853Z,18.87
2023-04-29T14:49:38.981Z,19.17
2023-04-29T14:52:06.566Z,20.91
2023-04-29T14:54:33.569Z,21.45
2023-04-29T14:57:01.652Z,21.74
2023-04-29T14:59:30.164Z,21.97
2023-04-29T15:01:57.270Z,22.13
2023-04-29T15:04:24.266Z,22.52
2023-04-29T15:06:51.057Z,22.46
2023-04-29T15:09:18.182Z,22.19
2023-04-29T15:11:45.288Z,22.38
2023-04-29T15:14:12.125Z,22.79
2023-04-29T15:16:39.347Z,22.83
2023-04-29T15:19:06.440Z,22.93
2023-04-29T15:21:33.989Z,22.56
2023-04-29T15:24:02.032Z,22.33
2023-04-29T15:26:29.344Z,21.87
2023-04-29T15:28:56.260Z,18.74
2023-04-29T15:31:24.913Z,18.01
2023-04-29T15:33:53.287Z,17.93
2023-04-29T15:36:35.417Z,17.33
2023-04-29T15:39:02.373Z,16.81
2023-04-29T15:41:29.242Z,16.32
2023-04-29T15:43:56.194Z,17.41
2023-04-29T15:46:23.194Z,17.85
2023-04-29T15:48:50.853Z,17.84
2023-04-29T15:51:18.210Z,16.21
2023-04-29T15:53:44.962Z,15.98
2023-04-29T15:56:12.820Z,16.25
2023-04-29T15:58:39.764Z,17.06
2023-04-29T16:01:06.744Z,17.10
2023-04-29T16:03:34.103Z,16.94
2023-04-29T16:06:01.146Z,16.87
2023-04-29T16:08:28.241Z,16.85
2023-04-29T16:10:55.481Z,16.75
2023-04-29T16:13:22.351Z,16.74
2023-04-29T16:15:49.572Z,15.97
2023-04-29T16:18:17.329Z,16.21
2023-04-29T16:20:45.034Z,16.27
2023-04-29T16:23:11.881Z,16.29
2023-04-29T16:25:40.875Z,16.52
2023-04-29T16:28:07.707Z,16.84
2023-04-29T16:30:35.471Z,16.99
2023-04-29T16:33:02.483Z,16.97
2023-04-29T16:35:30.320Z,17.12
2023-04-29T16:37:57.167Z,17.22
2023-04-29T16:40:24.106Z,16.84
2023-04-29T16:42:52.720Z,16.44
2023-04-29T16:45:20.523Z,16.29
2023-04-29T16:47:49.162Z,16.18
2023-04-29T16:50:16.965Z,16.05
2023-04-29T16:52:44.174Z,15.90
2023-04-29T16:55:14.172Z,15.75
2023-04-29T16:57:41.586Z,15.59
2023-04-29T17:00:09.811Z,15.20
2023-04-29T17:02:39.460Z,15.29
2023-04-29T17:05:08.331Z,15.00
2023-04-29T17:07:35.304Z,14.75
2023-04-29T17:10:03.166Z,14.54
2023-04-29T17:12:30.216Z,14.51
2023-04-29T17:14:57.263Z,14.43
2023-04-29T17:17:24.104Z,14.25
2023-04-29T17:19:51.098Z,14.16
2023-04-29T17:22:19.321Z,14.05
2023-04-29T17:24:46.463Z,14.09
2023-04-29T17:27:13.332Z,14.02
2023-04-29T17:29:40.369Z,13.95
2023-04-29T17:32:11.977Z,13.88
2023-04-29T17:34:38.964Z,13.85
2023-04-29T17:37:06.206Z,13.80
2023-04-29T17:39:33.869Z,13.64
2023-04-29T17:42:00.873Z,13.67
2023-04-29T17:44:27.972Z,13.55
2023-04-29T17:46:54.834Z,13.50
2023-04-29T17:49:21.655Z,13.33
2023-04-29T17:51:48.430Z,13.25
2023-04-29T17:54:15.213Z,13.18
2023-04-29T17:56:42.017Z,13.16
2023-04-29T17:59:09.029Z,13.03
2023-04-29T18:01:36.636Z,12.86
2023-04-29T18:04:04.318Z,12.77
2023-04-29T18:06:31.514Z,12.58
2023-04-29T18:08:58.433Z,12.54
2023-04-29T18:11:25.476Z,12.55
2023-04-29T18:13:53.344Z,12.55
2023-04-29T18:16:20.283Z,12.52
2023-04-29T18:18:47.236Z,10.19
2023-04-29T18:21:20.055Z,9.74
2023-04-29T18:23:47.270Z,9.61
2023-04-29T18:26:14.665Z,9.50
2023-04-29T18:28:41.484Z,9.57
2023-04-29T18:31:08.277Z,9.42
2023-04-29T18:33:36.413Z,9.36
2023-04-29T18:36:03.706Z,9.76
2023-04-29T18:38:30.670Z,9.75
2023-04-29T18:40:57.494Z,9.82
2023-04-29T18:43:27.844Z,9.95
2023-04-29T18:45:56.373Z,9.79
2023-04-29T18:48:23.778Z,10.56
2023-04-29T18:50:52.164Z,10.79
2023-04-29T18:53:19.095Z,10.48
2023-04-29T18:55:46.654Z,10.40
2023-04-29T18:58:14.172Z,10.42
2023-04-29T19:00:41.924Z,10.33
2023-04-29T19:03:08.967Z,10.16
2023-04-29T19:05:35.844Z,10.18
2023-04-29T19:08:02.692Z,10.22
2023-04-29T19:10:30.009Z,10.10
2023-04-29T19:12:56.786Z,10.18
2023-04-29T19:15:27.297Z,10.22
2023-04-29T19:17:54.639Z,10.19
2023-04-29T19:20:21.565Z,10.30
2023-04-29T19:22:48.676Z,10.45
2023-04-29T19:25:15.560Z,10.50
2023-04-29T19:27:45.142Z,10.54
2023-04-29T19:30:12.629Z,10.52
2023-04-29T19:32:40.580Z,10.60
2023-04-29T19:35:08.120Z,10.84
2023-04-29T19:37:35.256Z,10.16
2023-04-29T19:40:03.189Z,9.79
2023-04-29T19:42:31.209Z,9.82
2023-04-29T19:44:58.036Z,9.83
2023-04-29T19:47:25.147Z,9.61
2023-04-29T19:49:52.297Z,9.81
2023-04-29T19:52:19.396Z,9.75
2023-04-29T19:54:46.228Z,9.54
2023-04-29T19:57:13.045Z,9.38
2023-04-29T19:59:40.074Z,9.33
2023-04-29T20:02:06.950Z,9.43
2023-04-29T20:04:34.362Z,9.34
2023-04-29T20:07:01.355Z,9.22
2023-04-29T20:09:28.284Z,9.20
2023-04-29T20:11:55.246Z,9.31
2023-04-29T20:14:22.953Z,9.45
2023-04-29T20:16:49.787Z,9.35
2023-04-29T20:19:17.134Z,9.27
2023-04-29T20:21:44.352Z,9.43
2023-04-29T20:24:11.343Z,9.29
2023-04-29T20:26:38.136Z,9.15
2023-04-29T20:29:05.288Z,9.15
2023-04-29T20:31:32.561Z,9.10
2023-04-29T20:33:59.727Z,9.04
2023-04-29T20:36:27.936Z,9.14
2023-04-29T20:38:54.783Z,9.06
2023-04-29T20:41:21.821Z,9.03
2023-04-29T20:43:48.689Z,8.75
2023-04-29T20:46:16.305Z,8.62
2023-04-29T20:48:43.402Z,8.72
2023-04-29T20:51:11.783Z,8.74
2023-04-29T20:53:38.944Z,8.88
2023-04-29T20:56:07.982Z,8.73
2023-04-29T20:58:34.970Z,8.68
2023-04-29T21:01:01.812Z,8.70
2023-04-29T21:03:29.177Z,8.74
2023-04-29T21:05:56.824Z,8.70
2023-04-29T21:08:24.098Z,8.62
2023-04-29T21:10:50.963Z,8.65
2023-04-29T21:13:17.758Z,8.58
2023-04-29T21:15:45.874Z,8.47
2023-04-29T21:18:13.360Z,8.33
2023-04-29T21:20:40.229Z,8.26
2023-04-29T21:23:07.047Z,8.14
2023-04-29T21:25:34.118Z,8.28
2023-04-29T21:28:01.187Z,8.26
2023-04-29T21:30:28.373Z,8.35
2023-04-29T21:32:55.775Z,8.47
2023-04-29T21:35:23.446Z,8.50
2023-04-29T21:37:51.568Z,8.63
2023-04-29T21:40:20.618Z,8.83
2023-04-29T21:42:50.509Z,8.80
2023-04-29T21:45:17.360Z,8.42
2023-04-29T21:47:44.183Z,8.33
2023-04-29T21:50:11.381Z,8.20
2023-04-29T21:52:38.606Z,8.25
2023-04-29T21:55:06.155Z,8.40
2023-04-29T21:57:43.388Z,8.10
2023-04-29T22:00:28.050Z,7.97
2023-04-29T22:02:55.109Z,7.99
2023-04-29T22:05:21.990Z,8.13
2023-04-29T22:07:48.938Z,8.15
2023-04-29T22:10:15.791Z,8.16
2023-04-29T22:12:42.610Z,8.11
2023-04-29T22:15:20.695Z,8.09
2023-04-29T22:17:54.724Z,8.07
2023-04-29T22:20:21.631Z,7.86
2023-04-29T22:22:48.565Z,7.67
2023-04-29T22:25:15.479Z,7.67
2023-04-29T22:27:42.350Z,7.50
2023-04-29T22:30:09.763Z,7.48
2023-04-29T22:32:36.719Z,7.60
2023-04-29T22:35:04.063Z,7.65
2023-04-29T22:37:31.155Z,7.56
2023-04-29T22:39:58.406Z,7.51
2023-04-29T22:42:25.268Z,7.50
2023-04-29T22:44:52.247Z,7.60
2023-04-29T22:47:19.097Z,7.58
2023-04-29T22:49:46.017Z,7.54
2023-04-29T22:52:12.983Z,7.47
2023-04-29T22:54:40.437Z,7.50
2023-04-29T22:57:07.412Z,7.61
2023-04-29T22:59:36.280Z,7.84
2023-04-29T23:02:03.107Z,7.85
2023-04-29T23:04:31.788Z,7.77
2023-04-29T23:06:58.852Z,7.64
2023-04-29T23:09:26.105Z,7.52
2023-04-29T23:11:52.954Z,7.54
2023-04-29T23:14:20.468Z,7.44
2023-04-29T23:16:47.239Z,7.49
2023-04-29T23:19:14.078Z,7.51
2023-04-29T23:21:41.369Z,7.39
2023-04-29T23:24:08.282Z,7.11
2023-04-29T23:26:35.259Z,6.95
2023-04-29T23:29:02.168Z,6.97
2023-04-29T23:31:29.107Z,7.02
2023-04-29T23:33:56.261Z,7.03
2023-04-29T23:36:23.088Z,7.14
2023-04-29T23:38:50.040Z,7.22
2023-04-29T23:41:16.881Z,7.28
2023-04-29T23:43:43.731Z,7.26
2023-04-29T23:46:10.645Z,7.17
2023-04-29T23:48:37.719Z,7.29
2023-04-29T23:51:04.682Z,7.11
2023-04-29T23:53:31.712Z,6.91
2023-04-29T23:55:58.650Z,6.81
2023-04-29T23:58:25.595Z,6.81
